Time;durP1;ratioP1;P1;durP2;ratioP2;P2;SDS_P1;SDS_P2;PMS_P1;PMS_P2;Temp;Humidity;BMP_temperature;BMP_pressure;BME280_temperature;BME280_humidity;BME280_pressure;Samples;Min_cycle;Max_cycle;Signal;HPM_P1;HPM_P2
2022/07/27 00:00:49;;;;;;;;;;;11.90;99.90;;;;;;5073671;28;19959;-71
2022/07/27 00:03:15;;;;;;;;;;;11.90;99.90;;;;;;5073795;28;19912;-70
2022/07/27 00:05:42;;;;;;;;;;;12.00;99.90;;;;;;5073931;28;20386;-69
2022/07/27 00:08:09;;;;;;;;;;;12.10;99.90;;;;;;5074282;28;19962;-68
2022/07/27 00:10:36;;;;;;;;;;;12.10;99.90;;;;;;5075434;28;20363;-71
2022/07/27 00:13:05;;;;;;;;;;;12.20;99.90;;;;;;5074288;28;19915;-71
2022/07/27 00:15:32;;;;;;;;;;;12.20;99.90;;;;;;5073559;28;20428;-71
2022/07/27 00:17:59;;;;;;;;;;;12.30;99.90;;;;;;5073781;28;19908;-71
2022/07/27 00:20:29;;;;;;;;;;;12.30;99.90;;;;;;5073488;28;19908;-71
2022/07/27 00:22:57;;;;;;;;;;;12.40;99.90;;;;;;5073389;28;19947;-70
2022/07/27 00:25:25;;;;;;;;;;;12.40;99.90;;;;;;5073860;28;20351;-69
2022/07/27 00:27:52;;;;;;;;;;;12.40;99.90;;;;;;5073576;28;19913;-68
2022/07/27 00:30:19;;;;;;;;;;;12.50;99.90;;;;;;5073359;28;19951;-69
2022/07/27 00:32:46;;;;;;;;;;;12.50;99.90;;;;;;5073522;28;19950;-69
2022/07/27 00:35:12;;;;;;;;;;;12.50;99.90;;;;;;5073431;28;19947;-69
2022/07/27 00:37:39;;;;;;;;;;;12.60;99.90;;;;;;5073388;28;19957;-70
2022/07/27 00:40:07;;;;;;;;;;;12.60;99.90;;;;;;5066007;28;19965;-70
2022/07/27 00:42:33;;;;;;;;;;;12.70;99.90;;;;;;5059633;28;19909;-70
2022/07/27 00:45:01;;;;;;;;;;;12.80;99.90;;;;;;5052542;28;19917;-70
2022/07/27 00:47:27;;;;;;;;;;;12.90;99.90;;;;;;5052652;28;19916;-68
2022/07/27 00:49:54;;;;;;;;;;;12.90;99.90;;;;;;5080333;28;19912;-71
2022/07/27 00:52:21;;;;;;;;;;;13.00;99.90;;;;;;5093214;28;20529;-70
2022/07/27 00:54:48;;;;;;;;;;;12.90;99.90;;;;;;5093381;28;19913;-70
2022/07/27 00:57:15;;;;;;;;;;;13.00;99.90;;;;;;5093237;28;19912;-70
2022/07/27 00:59:42;;;;;;;;;;;13.10;99.90;;;;;;5093066;28;19920;-70
2022/07/27 01:02:09;;;;;;;;;;;13.10;99.90;;;;;;5093018;28;19912;-70
2022/07/27 01:04:35;;;;;;;;;;;13.20;99.90;;;;;;5093209;28;19916;-68
2022/07/27 01:07:03;;;;;;;;;;;13.30;99.90;;;;;;5093338;28;19998;-70
2022/07/27 01:12:18;;;;;;;;;;;13.70;99.80;;;;;;5093456;28;20063;-70
2022/07/27 01:14:45;;;;;;;;;;;14.10;99.00;;;;;;5093067;28;19908;-71
2022/07/27 01:17:12;;;;;;;;;;;14.40;98.90;;;;;;5093053;28;19908;-70
2022/07/27 01:19:38;;;;;;;;;;;14.40;98.30;;;;;;5093679;28;20476;-69
2022/07/27 01:22:05;;;;;;;;;;;14.40;98.00;;;;;;5096975;28;19912;-70
2022/07/27 01:24:32;;;;;;;;;;;14.80;97.50;;;;;;5097038;28;19922;-69
2022/07/27 01:27:02;;;;;;;;;;;14.90;97.70;;;;;;5097051;28;19961;-69
2022/07/27 01:29:30;;;;;;;;;;;14.80;97.40;;;;;;5096838;28;19912;-68
2022/07/27 01:31:57;;;;;;;;;;;14.90;97.70;;;;;;5095601;28;19908;-69
2022/07/27 01:34:23;;;;;;;;;;;14.70;97.70;;;;;;5096647;28;19912;-68
2022/07/27 01:36:50;;;;;;;;;;;14.40;98.40;;;;;;5097070;28;19912;-70
2022/07/27 01:39:17;;;;;;;;;;;14.30;97.70;;;;;;5096890;28;19908;-70
2022/07/27 01:41:44;;;;;;;;;;;14.30;97.90;;;;;;5097063;28;19912;-69
2022/07/27 01:44:11;;;;;;;;;;;14.30;97.70;;;;;;5096639;28;19923;-70
2022/07/27 01:46:38;;;;;;;;;;;14.30;97.40;;;;;;5096643;28;19990;-69
2022/07/27 01:49:05;;;;;;;;;;;14.30;96.80;;;;;;5096730;28;19908;-70
2022/07/27 01:51:32;;;;;;;;;;;14.30;97.10;;;;;;5097210;28;20408;-69
2022/07/27 01:53:58;;;;;;;;;;;14.30;97.40;;;;;;5098041;28;19919;-68
2022/07/27 01:56:25;;;;;;;;;;;14.40;97.20;;;;;;5096589;28;20278;-70
2022/07/27 01:58:53;;;;;;;;;;;14.30;97.20;;;;;;5096622;28;19920;-71
2022/07/27 02:01:20;;;;;;;;;;;14.40;96.90;;;;;;5096402;28;20326;-71
2022/07/27 02:03:47;;;;;;;;;;;14.40;97.30;;;;;;5096380;28;19919;-71
2022/07/27 02:06:14;;;;;;;;;;;14.60;97.40;;;;;;5094909;28;20403;-71
2022/07/27 02:08:40;;;;;;;;;;;14.50;96.70;;;;;;5096267;28;19912;-71
2022/07/27 02:13:52;;;;;;;;;;;14.50;97.10;;;;;;5096641;28;20274;-70
2022/07/27 02:16:19;;;;;;;;;;;14.60;97.20;;;;;;5094792;28;20327;-72
2022/07/27 02:18:46;;;;;;;;;;;14.60;96.20;;;;;;5096271;28;19915;-71
2022/07/27 02:21:12;;;;;;;;;;;14.70;96.60;;;;;;5096243;28;20035;-70
2022/07/27 02:23:40;;;;;;;;;;;14.70;96.20;;;;;;5096147;28;19974;-71
2022/07/27 02:26:07;;;;;;;;;;;14.70;96.50;;;;;;5095856;28;19915;-71
2022/07/27 02:28:35;;;;;;;;;;;14.70;95.90;;;;;;5095791;28;19915;-71
2022/07/27 02:31:02;;;;;;;;;;;14.70;95.90;;;;;;5095765;28;19909;-71
2022/07/27 02:33:28;;;;;;;;;;;14.70;95.50;;;;;;5095993;28;19913;-70
2022/07/27 02:35:55;;;;;;;;;;;14.70;95.60;;;;;;5095984;28;19908;-70
2022/07/27 02:38:22;;;;;;;;;;;14.80;96.50;;;;;;5094836;28;19908;-68
2022/07/27 02:40:49;;;;;;;;;;;14.80;96.00;;;;;;5066695;28;19912;-67
2022/07/27 02:43:16;;;;;;;;;;;14.90;96.40;;;;;;5054481;28;20366;-67
2022/07/27 02:45:43;;;;;;;;;;;14.90;95.60;;;;;;5054387;28;19952;-68
2022/07/27 02:48:09;;;;;;;;;;;15.00;96.10;;;;;;5054763;28;19915;-68
2022/07/27 02:50:36;;;;;;;;;;;14.90;95.90;;;;;;5063904;28;19936;-69
2022/07/27 02:53:03;;;;;;;;;;;15.00;96.50;;;;;;5095814;28;19908;-70
2022/07/27 02:55:29;;;;;;;;;;;15.00;96.10;;;;;;5095689;28;20362;-72
2022/07/27 02:57:56;;;;;;;;;;;15.00;95.90;;;;;;5095993;28;20270;-71
2022/07/27 03:00:23;;;;;;;;;;;15.10;96.40;;;;;;5095417;28;20015;-71
2022/07/27 03:02:50;;;;;;;;;;;15.10;96.30;;;;;;5095993;28;19934;-70
2022/07/27 03:05:17;;;;;;;;;;;15.20;96.70;;;;;;5096219;28;19920;-72
2022/07/27 03:07:44;;;;;;;;;;;15.30;96.00;;;;;;5096321;28;19915;-70
2022/07/27 03:10:10;;;;;;;;;;;15.30;95.50;;;;;;5095953;28;19915;-70
2022/07/27 03:12:37;;;;;;;;;;;15.20;95.60;;;;;;5095924;28;19912;-71
2022/07/27 03:15:04;;;;;;;;;;;15.30;96.10;;;;;;5095964;28;19915;-71
2022/07/27 03:17:31;;;;;;;;;;;15.30;95.80;;;;;;5095793;28;19912;-71
2022/07/27 03:19:58;;;;;;;;;;;15.20;96.30;;;;;;5095253;28;20385;-71
2022/07/27 03:22:29;;;;;;;;;;;15.30;96.20;;;;;;5073946;28;19913;-71
2022/07/27 03:24:56;;;;;;;;;;;15.40;96.00;;;;;;5057985;28;19923;-72
2022/07/27 03:27:22;;;;;;;;;;;15.50;95.70;;;;;;5054087;28;19909;-72
2022/07/27 03:29:49;;;;;;;;;;;15.50;95.10;;;;;;5081065;28;19947;-70
2022/07/27 03:32:16;;;;;;;;;;;15.50;95.80;;;;;;5094886;28;20358;-70
2022/07/27 03:34:42;;;;;;;;;;;15.40;95.90;;;;;;5100357;28;19908;-68
2022/07/27 03:37:09;;;;;;;;;;;15.40;95.80;;;;;;5096720;28;19919;-70
2022/07/27 03:39:36;;;;;;;;;;;15.40;95.90;;;;;;5094770;28;19915;-68
2022/07/27 03:42:03;;;;;;;;;;;15.40;95.90;;;;;;5094459;28;19908;-69
2022/07/27 03:44:29;;;;;;;;;;;15.40;95.90;;;;;;5094357;28;19923;-69
2022/07/27 03:46:56;;;;;;;;;;;15.50;96.00;;;;;;5094481;28;19908;-68
2022/07/27 03:49:23;;;;;;;;;;;15.60;96.20;;;;;;5094738;28;19908;-70
2022/07/27 03:51:50;;;;;;;;;;;15.50;96.20;;;;;;5094337;28;19908;-68
2022/07/27 03:54:19;;;;;;;;;;;15.60;96.30;;;;;;5094188;28;19923;-69
2022/07/27 03:56:46;;;;;;;;;;;15.60;95.90;;;;;;5094435;28;19918;-68
2022/07/27 03:59:13;;;;;;;;;;;15.70;96.00;;;;;;5093540;28;19920;-68
2022/07/27 04:01:39;;;;;;;;;;;15.70;96.20;;;;;;5094060;28;20286;-69
2022/07/27 04:04:06;;;;;;;;;;;15.70;96.20;;;;;;5093621;28;19916;-70
2022/07/27 04:06:33;;;;;;;;;;;15.90;95.60;;;;;;5094007;28;20330;-69
2022/07/27 04:08:59;;;;;;;;;;;15.90;95.50;;;;;;5094058;28;19915;-71
2022/07/27 04:11:26;;;;;;;;;;;15.80;95.00;;;;;;5094016;28;19915;-70
2022/07/27 04:13:53;;;;;;;;;;;15.80;95.60;;;;;;5093786;28;19941;-70
2022/07/27 04:16:20;;;;;;;;;;;15.80;95.80;;;;;;5093653;28;19955;-71
2022/07/27 04:18:47;;;;;;;;;;;15.70;96.10;;;;;;5093940;28;19908;-71
2022/07/27 04:21:14;;;;;;;;;;;15.70;95.80;;;;;;5093689;28;19915;-70
2022/07/27 04:23:41;;;;;;;;;;;15.70;95.70;;;;;;5093659;28;19995;-71
2022/07/27 04:26:08;;;;;;;;;;;15.80;96.30;;;;;;5093548;28;20323;-70
2022/07/27 04:28:35;;;;;;;;;;;15.90;95.30;;;;;;5093604;28;19916;-70
2022/07/27 04:31:01;;;;;;;;;;;15.80;95.50;;;;;;5093613;28;19915;-72
2022/07/27 04:33:28;;;;;;;;;;;16.00;94.80;;;;;;5093653;28;19966;-70
2022/07/27 04:35:55;;;;;;;;;;;16.00;94.80;;;;;;5093698;28;19912;-71
2022/07/27 04:38:21;;;;;;;;;;;16.10;94.80;;;;;;5093401;28;20421;-69
2022/07/27 04:40:48;;;;;;;;;;;16.10;95.00;;;;;;5093652;28;19935;-69
2022/07/27 04:43:15;;;;;;;;;;;16.20;94.60;;;;;;5093490;28;19923;-70
2022/07/27 04:45:42;;;;;;;;;;;16.30;94.90;;;;;;5093427;28;19912;-70
2022/07/27 04:48:09;;;;;;;;;;;16.30;94.20;;;;;;5093237;28;19999;-70
2022/07/27 04:50:43;;;;;;;;;;;16.20;94.50;;;;;;5093327;28;19908;-71
2022/07/27 04:53:10;;;;;;;;;;;16.20;94.30;;;;;;5093377;28;19908;-71
2022/07/27 04:55:37;;;;;;;;;;;16.10;94.20;;;;;;5095627;28;19915;-71
2022/07/27 04:58:03;;;;;;;;;;;16.00;95.50;;;;;;5097498;28;19915;-71
2022/07/27 05:00:30;;;;;;;;;;;16.00;95.10;;;;;;5097330;28;19965;-71
2022/07/27 05:02:57;;;;;;;;;;;16.10;94.60;;;;;;5097525;28;20347;-71
2022/07/27 05:05:24;;;;;;;;;;;16.20;94.20;;;;;;5097395;28;19912;-71
2022/07/27 05:07:50;;;;;;;;;;;16.10;94.70;;;;;;5097491;28;19953;-71
2022/07/27 05:10:17;;;;;;;;;;;16.20;94.80;;;;;;5097324;28;20008;-69
2022/07/27 05:12:44;;;;;;;;;;;16.20;94.90;;;;;;5097533;28;19908;-68
2022/07/27 05:15:11;;;;;;;;;;;16.20;94.90;;;;;;5100002;28;19909;-69
2022/07/27 05:17:38;;;;;;;;;;;16.20;95.00;;;;;;5098458;28;19909;-71
2022/07/27 05:20:05;;;;;;;;;;;16.20;95.00;;;;;;5097535;28;19912;-71
2022/07/27 05:22:31;;;;;;;;;;;16.20;94.50;;;;;;5097334;28;19999;-71
2022/07/27 05:24:58;;;;;;;;;;;16.20;94.50;;;;;;5096886;28;19916;-71
2022/07/27 05:27:25;;;;;;;;;;;16.30;93.90;;;;;;5096928;28;19908;-70
2022/07/27 05:29:52;;;;;;;;;;;16.30;94.20;;;;;;5096929;28;20002;-71
2022/07/27 05:32:18;;;;;;;;;;;16.30;94.40;;;;;;5096895;28;19915;-70
2022/07/27 05:34:45;;;;;;;;;;;16.30;93.80;;;;;;5096980;28;19915;-70
2022/07/27 05:37:12;;;;;;;;;;;16.30;93.80;;;;;;5097007;28;20338;-71
2022/07/27 05:39:41;;;;;;;;;;;16.30;93.40;;;;;;5096940;28;19919;-71
2022/07/27 05:42:08;;;;;;;;;;;16.20;93.20;;;;;;5096541;28;19943;-71
2022/07/27 05:44:35;;;;;;;;;;;16.30;92.90;;;;;;5096618;28;20377;-71
2022/07/27 05:47:02;;;;;;;;;;;16.20;93.10;;;;;;5096692;28;19912;-71
2022/07/27 05:49:28;;;;;;;;;;;16.20;93.20;;;;;;5095414;28;19919;-71
2022/07/27 05:51:55;;;;;;;;;;;16.30;93.20;;;;;;5096583;28;20315;-71
2022/07/27 05:54:22;;;;;;;;;;;16.20;93.50;;;;;;5096365;28;19908;-71
2022/07/27 05:56:49;;;;;;;;;;;16.20;93.80;;;;;;5096536;28;20358;-71
2022/07/27 05:59:16;;;;;;;;;;;16.10;93.40;;;;;;5096257;28;20382;-71
2022/07/27 06:01:42;;;;;;;;;;;16.10;93.50;;;;;;5096405;28;20007;-71
2022/07/27 06:04:09;;;;;;;;;;;16.10;93.50;;;;;;5096177;28;19993;-71
2022/07/27 06:09:20;;;;;;;;;;;16.10;93.30;;;;;;5096383;28;19915;-71
2022/07/27 06:11:47;;;;;;;;;;;16.10;93.20;;;;;;5096172;28;19913;-70
2022/07/27 06:14:14;;;;;;;;;;;16.10;93.60;;;;;;5095826;28;19946;-71
2022/07/27 06:16:41;;;;;;;;;;;16.10;93.50;;;;;;5096092;28;19908;-70
2022/07/27 06:19:07;;;;;;;;;;;16.10;93.30;;;;;;5096217;28;19908;-71
2022/07/27 06:21:34;;;;;;;;;;;16.00;93.40;;;;;;5096183;28;19954;-69
2022/07/27 06:24:01;;;;;;;;;;;15.90;94.20;;;;;;5095663;28;19912;-70
2022/07/27 06:26:28;;;;;;;;;;;15.70;94.90;;;;;;5095983;28;19916;-71
2022/07/27 06:28:57;;;;;;;;;;;15.60;95.70;;;;;;5095945;28;20298;-70
2022/07/27 06:31:25;;;;;;;;;;;15.60;96.00;;;;;;5095930;28;19995;-71
2022/07/27 06:33:53;;;;;;;;;;;15.50;96.80;;;;;;5094512;28;19914;-71
2022/07/27 06:36:20;;;;;;;;;;;15.40;96.10;;;;;;5095539;28;19994;-71
2022/07/27 06:38:47;;;;;;;;;;;15.40;96.20;;;;;;5095793;28;19912;-71
2022/07/27 06:41:14;;;;;;;;;;;15.30;96.90;;;;;;5095957;28;19915;-71
2022/07/27 06:43:41;;;;;;;;;;;15.20;97.20;;;;;;5095396;28;20347;-69
2022/07/27 06:46:11;;;;;;;;;;;15.10;96.80;;;;;;5095317;28;19908;-71
2022/07/27 06:48:38;;;;;;;;;;;15.10;97.00;;;;;;5095680;28;19908;-69
2022/07/27 06:51:05;;;;;;;;;;;15.00;98.00;;;;;;5094045;28;19908;-71
2022/07/27 06:53:32;;;;;;;;;;;14.90;97.30;;;;;;5093176;28;19914;-67
2022/07/27 06:56:02;;;;;;;;;;;14.90;97.40;;;;;;5091687;28;20055;-68
2022/07/27 06:58:32;;;;;;;;;;;14.90;97.40;;;;;;5093191;28;19920;-70
2022/07/27 07:01:01;;;;;;;;;;;14.80;97.10;;;;;;5073171;28;19925;-71
2022/07/27 07:03:28;;;;;;;;;;;14.80;97.80;;;;;;5072636;28;19920;-69
2022/07/27 07:05:54;;;;;;;;;;;14.70;97.50;;;;;;5072163;28;19991;-71
2022/07/27 07:08:21;;;;;;;;;;;14.60;98.50;;;;;;5072329;28;20011;-70
2022/07/27 07:10:49;;;;;;;;;;;14.50;98.70;;;;;;5072460;28;19909;-71
2022/07/27 07:13:16;;;;;;;;;;;14.50;98.10;;;;;;5072441;28;19962;-72
2022/07/27 07:15:43;;;;;;;;;;;14.40;98.40;;;;;;5072324;28;19966;-70
2022/07/27 07:18:10;;;;;;;;;;;14.30;98.30;;;;;;5071009;28;19913;-70
2022/07/27 07:20:37;;;;;;;;;;;14.30;98.60;;;;;;5072283;28;19908;-71
2022/07/27 07:23:04;;;;;;;;;;;14.20;98.60;;;;;;5072407;28;19955;-71
2022/07/27 07:25:32;;;;;;;;;;;14.20;98.90;;;;;;5072591;28;19913;-71
2022/07/27 07:28:02;;;;;;;;;;;14.10;99.50;;;;;;5054732;28;19917;-71
2022/07/27 07:30:29;;;;;;;;;;;14.00;98.90;;;;;;5072198;28;20382;-71
2022/07/27 07:32:57;;;;;;;;;;;14.00;99.30;;;;;;5072132;28;19908;-71
2022/07/27 07:35:24;;;;;;;;;;;14.00;99.70;;;;;;5072196;28;20252;-72
2022/07/27 07:37:51;;;;;;;;;;;13.90;99.50;;;;;;5072658;28;19912;-71
2022/07/27 07:40:18;;;;;;;;;;;13.80;99.80;;;;;;5072003;28;19956;-71
2022/07/27 07:42:56;;;;;;;;;;;13.70;99.90;;;;;;5072005;28;19991;-71
2022/07/27 07:45:23;;;;;;;;;;;13.70;99.70;;;;;;5071945;28;19962;-71
2022/07/27 07:47:50;;;;;;;;;;;13.70;99.90;;;;;;5071857;28;19916;-71
2022/07/27 07:50:17;;;;;;;;;;;13.60;99.90;;;;;;5071639;28;19908;-71
2022/07/27 07:52:44;;;;;;;;;;;13.60;99.90;;;;;;5071819;28;20034;-70
2022/07/27 07:55:11;;;;;;;;;;;13.60;99.90;;;;;;5071937;28;19915;-70
2022/07/27 07:57:37;;;;;;;;;;;13.60;99.90;;;;;;5071568;28;19912;-70
2022/07/27 08:00:05;;;;;;;;;;;13.60;99.90;;;;;;5084551;28;19952;-68
2022/07/27 08:02:32;;;;;;;;;;;13.50;99.90;;;;;;5092360;28;19912;-70
2022/07/27 08:04:59;;;;;;;;;;;13.60;99.90;;;;;;5091991;28;19920;-70
2022/07/27 08:07:29;;;;;;;;;;;13.60;99.90;;;;;;5091331;28;20436;-71
2022/07/27 08:09:56;;;;;;;;;;;13.60;99.90;;;;;;5091565;28;19908;-71
2022/07/27 08:12:23;;;;;;;;;;;13.60;99.90;;;;;;5091477;28;20281;-71
2022/07/27 08:14:49;;;;;;;;;;;13.60;99.90;;;;;;5091825;28;20021;-69
2022/07/27 08:17:16;;;;;;;;;;;13.50;99.90;;;;;;5091857;28;20003;-70
2022/07/27 08:19:43;;;;;;;;;;;13.50;99.90;;;;;;5091733;28;19995;-70
2022/07/27 08:22:09;;;;;;;;;;;13.70;99.90;;;;;;5091271;28;19925;-70
2022/07/27 08:24:36;;;;;;;;;;;13.60;99.90;;;;;;5091343;28;19920;-68
2022/07/27 08:27:03;;;;;;;;;;;13.60;99.90;;;;;;5091450;28;19912;-71
2022/07/27 08:29:31;;;;;;;;;;;13.50;99.90;;;;;;5091250;28;19923;-68
2022/07/27 08:31:58;;;;;;;;;;;13.50;99.90;;;;;;5091657;28;19908;-67
2022/07/27 08:34:25;;;;;;;;;;;13.50;99.70;;;;;;5091154;28;19961;-70
2022/07/27 08:36:51;;;;;;;;;;;13.50;99.90;;;;;;5091069;28;19912;-67
2022/07/27 08:39:19;;;;;;;;;;;13.50;99.90;;;;;;5091512;28;19912;-68
2022/07/27 08:41:46;;;;;;;;;;;13.50;99.90;;;;;;5091230;28;19953;-71
2022/07/27 08:44:13;;;;;;;;;;;13.50;99.90;;;;;;5090910;28;19916;-67
2022/07/27 08:46:45;;;;;;;;;;;13.50;99.90;;;;;;5091330;28;19912;-67
2022/07/27 08:49:12;;;;;;;;;;;13.50;99.90;;;;;;5090967;28;20350;-70
2022/07/27 08:51:38;;;;;;;;;;;13.50;99.90;;;;;;5091251;28;19912;-68
2022/07/27 08:54:05;;;;;;;;;;;13.40;99.90;;;;;;5091049;28;20046;-69
2022/07/27 08:56:32;;;;;;;;;;;13.40;99.90;;;;;;5091317;28;20007;-67
2022/07/27 08:58:59;;;;;;;;;;;13.40;99.90;;;;;;5090848;28;19916;-69
2022/07/27 09:01:26;;;;;;;;;;;13.50;99.90;;;;;;5090925;28;20011;-71
2022/07/27 09:03:53;;;;;;;;;;;13.60;99.90;;;;;;5093128;28;19925;-71
2022/07/27 09:06:38;;;;;;;;;;;13.60;99.90;;;;;;5091670;28;20340;-69
2022/07/27 09:09:05;;;;;;;;;;;13.60;99.90;;;;;;5093348;28;19908;-71
2022/07/27 09:11:32;;;;;;;;;;;13.60;99.90;;;;;;5093247;28;19951;-68
2022/07/27 09:14:02;;;;;;;;;;;13.50;99.90;;;;;;5093091;28;19908;-67
2022/07/27 09:16:32;;;;;;;;;;;13.50;99.90;;;;;;5093331;28;20311;-68
2022/07/27 09:19:00;;;;;;;;;;;13.50;99.90;;;;;;5093201;28;19920;-68
2022/07/27 09:21:27;;;;;;;;;;;13.50;99.90;;;;;;5093049;28;19909;-68
2022/07/27 09:23:56;;;;;;;;;;;13.40;99.90;;;;;;5093084;28;19916;-68
2022/07/27 09:26:27;;;;;;;;;;;13.40;99.90;;;;;;5092791;28;19908;-67
2022/07/27 09:28:56;;;;;;;;;;;13.30;99.90;;;;;;5093374;28;20346;-69
2022/07/27 09:31:23;;;;;;;;;;;13.30;99.90;;;;;;5092930;28;19943;-67
2022/07/27 09:33:50;;;;;;;;;;;13.30;99.90;;;;;;5092922;28;19912;-67
2022/07/27 09:36:21;;;;;;;;;;;13.20;99.90;;;;;;5093306;28;20341;-68
2022/07/27 09:38:55;;;;;;;;;;;13.20;99.90;;;;;;5093054;28;19912;-67
2022/07/27 09:41:22;;;;;;;;;;;13.10;99.90;;;;;;5094658;28;19912;-68
2022/07/27 09:43:51;;;;;;;;;;;13.10;99.90;;;;;;5096579;28;19923;-67
2022/07/27 09:46:37;;;;;;;;;;;13.00;99.90;;;;;;5096678;28;19912;-67
2022/07/27 09:49:05;;;;;;;;;;;13.10;99.90;;;;;;5096418;28;19909;-71
2022/07/27 09:51:32;;;;;;;;;;;13.00;99.90;;;;;;5096676;28;19908;-70
2022/07/27 09:53:59;;;;;;;;;;;13.00;99.90;;;;;;5096720;28;19916;-71
2022/07/27 09:56:30;;;;;;;;;;;12.90;99.90;;;;;;5096749;28;20053;-69
2022/07/27 09:58:58;;;;;;;;;;;12.90;99.90;;;;;;5096286;28;19919;-69
2022/07/27 10:01:25;;;;;;;;;;;12.90;99.90;;;;;;5095370;28;19916;-68
2022/07/27 10:03:54;;;;;;;;;;;12.80;99.90;;;;;;5096351;28;19923;-68
2022/07/27 10:06:21;;;;;;;;;;;12.80;99.90;;;;;;5071330;28;19913;-68
2022/07/27 10:08:48;;;;;;;;;;;12.80;99.90;;;;;;5063183;28;19909;-68
2022/07/27 10:11:16;;;;;;;;;;;12.80;99.90;;;;;;5055221;28;19958;-68
2022/07/27 10:13:43;;;;;;;;;;;12.80;99.90;;;;;;5055108;28;19919;-69
2022/07/27 10:16:15;;;;;;;;;;;12.80;99.90;;;;;;5055070;28;19954;-72
2022/07/27 10:18:49;;;;;;;;;;;12.70;99.90;;;;;;5055035;28;20286;-70
2022/07/27 10:21:16;;;;;;;;;;;12.70;99.90;;;;;;5055942;28;19915;-70
2022/07/27 10:23:53;;;;;;;;;;;12.70;99.90;;;;;;5054763;28;19916;-70
2022/07/27 10:26:26;;;;;;;;;;;12.70;99.90;;;;;;5054874;28;19934;-71
2022/07/27 10:28:53;;;;;;;;;;;12.70;99.90;;;;;;5055052;28;19909;-71
2022/07/27 10:31:21;;;;;;;;;;;12.70;99.90;;;;;;5053267;28;19909;-70
2022/07/27 10:33:50;;;;;;;;;;;12.60;99.90;;;;;;5054935;28;19909;-70
2022/07/27 10:36:19;;;;;;;;;;;12.60;99.90;;;;;;5054596;28;20386;-71
2022/07/27 10:38:55;;;;;;;;;;;12.50;99.90;;;;;;5054752;28;19916;-71
2022/07/27 10:41:25;;;;;;;;;;;12.50;99.90;;;;;;5054784;28;19909;-70
2022/07/27 10:44:10;;;;;;;;;;;12.60;99.90;;;;;;5055036;28;19919;-70
2022/07/27 10:46:37;;;;;;;;;;;12.50;99.90;;;;;;5054559;28;19913;-71
2022/07/27 10:49:17;;;;;;;;;;;12.50;99.90;;;;;;5054537;28;19909;-70
2022/07/27 10:51:44;;;;;;;;;;;12.50;99.90;;;;;;5084792;28;20000;-70
2022/07/27 10:54:26;;;;;;;;;;;12.50;99.90;;;;;;5094505;28;19915;-71
2022/07/27 10:56:54;;;;;;;;;;;12.40;99.90;;;;;;5095348;28;19908;-71
2022/07/27 10:59:38;;;;;;;;;;;12.40;99.90;;;;;;5095031;28;20396;-71
2022/07/27 11:02:06;;;;;;;;;;;12.40;99.90;;;;;;5095055;28;19912;-71
2022/07/27 11:04:33;;;;;;;;;;;12.40;99.90;;;;;;5095241;28;19916;-71
2022/07/27 11:07:01;;;;;;;;;;;12.40;99.90;;;;;;5095110;28;20351;-71
2022/07/27 11:09:37;;;;;;;;;;;12.40;99.90;;;;;;5095170;28;20400;-71
2022/07/27 11:12:05;;;;;;;;;;;12.30;99.90;;;;;;5094688;28;20255;-70
2022/07/27 11:14:42;;;;;;;;;;;12.30;99.90;;;;;;5095012;28;19915;-70
2022/07/27 11:17:09;;;;;;;;;;;12.30;99.90;;;;;;5062482;28;19916;-71
2022/07/27 11:19:36;;;;;;;;;;;12.30;99.90;;;;;;5060334;28;20270;-69
2022/07/27 11:22:03;;;;;;;;;;;12.30;99.90;;;;;;5053823;28;19909;-70
2022/07/27 11:24:29;;;;;;;;;;;12.30;99.90;;;;;;5053836;28;19924;-70
2022/07/27 11:26:56;;;;;;;;;;;12.30;99.90;;;;;;5053856;28;19909;-70
2022/07/27 11:29:24;;;;;;;;;;;12.30;99.90;;;;;;5054293;28;19956;-70
2022/07/27 11:31:54;;;;;;;;;;;12.20;99.90;;;;;;5054123;28;19908;-70
2022/07/27 11:34:28;;;;;;;;;;;12.20;99.90;;;;;;5053675;28;19909;-69
2022/07/27 11:37:00;;;;;;;;;;;12.20;99.90;;;;;;5053596;28;19909;-69
2022/07/27 11:39:28;;;;;;;;;;;12.20;99.90;;;;;;5074460;28;19908;-69
2022/07/27 11:41:59;;;;;;;;;;;12.10;99.90;;;;;;5073378;28;19917;-69
2022/07/27 11:44:26;;;;;;;;;;;12.10;99.90;;;;;;5062640;28;20355;-69
2022/07/27 11:46:53;;;;;;;;;;;12.10;99.90;;;;;;5053930;28;20332;-69
2022/07/27 11:49:27;;;;;;;;;;;12.00;99.90;;;;;;5053272;28;19995;-69
2022/07/27 11:51:55;;;;;;;;;;;12.00;99.90;;;;;;5054165;28;19936;-69
2022/07/27 11:54:24;;;;;;;;;;;12.00;99.90;;;;;;5058512;28;19909;-69
2022/07/27 11:57:04;;;;;;;;;;;12.00;99.90;;;;;;5056650;28;19909;-69
2022/07/27 11:59:35;;;;;;;;;;;12.00;99.90;;;;;;5055485;28;19921;-70
2022/07/27 12:02:03;;;;;;;;;;;11.90;99.90;;;;;;5054665;28;20015;-69
2022/07/27 12:04:35;;;;;;;;;;;11.90;99.90;;;;;;5053507;28;20259;-69
2022/07/27 12:07:09;;;;;;;;;;;11.90;99.90;;;;;;5069480;28;19912;-70
2022/07/27 12:09:37;;;;;;;;;;;11.90;99.90;;;;;;5053246;28;20279;-69
2022/07/27 12:12:14;;;;;;;;;;;11.90;99.90;;;;;;5051999;28;19995;-69
2022/07/27 12:14:45;;;;;;;;;;;11.90;99.90;;;;;;5053059;28;19915;-70
2022/07/27 12:17:14;;;;;;;;;;;11.80;99.90;;;;;;5052917;28;19908;-69
2022/07/27 12:19:41;;;;;;;;;;;11.90;99.90;;;;;;5052795;28;19952;-70
2022/07/27 12:22:09;;;;;;;;;;;11.80;99.90;;;;;;5052756;28;20007;-70
2022/07/27 12:24:39;;;;;;;;;;;11.80;99.90;;;;;;5053145;28;19916;-69
2022/07/27 12:27:13;;;;;;;;;;;11.80;99.90;;;;;;5052189;28;19909;-69
2022/07/27 12:29:56;;;;;;;;;;;11.80;99.90;;;;;;5052668;28;19923;-69
2022/07/27 12:32:23;;;;;;;;;;;11.80;99.90;;;;;;5052453;28;19908;-70
2022/07/27 12:34:50;;;;;;;;;;;11.80;99.90;;;;;;5052785;28;19912;-70
2022/07/27 12:37:17;;;;;;;;;;;11.70;99.90;;;;;;5052681;28;19908;-70
2022/07/27 12:39:44;;;;;;;;;;;11.70;99.90;;;;;;5052603;28;19912;-70
2022/07/27 12:42:12;;;;;;;;;;;11.70;99.90;;;;;;5051744;28;19909;-70
2022/07/27 12:44:40;;;;;;;;;;;11.60;99.90;;;;;;5052405;28;20087;-70
2022/07/27 12:50:06;;;;;;;;;;;11.60;99.90;;;;;;5052860;28;19916;-70
2022/07/27 12:52:34;;;;;;;;;;;11.60;99.90;;;;;;5052648;28;19915;-70
2022/07/27 12:55:02;;;;;;;;;;;11.50;99.90;;;;;;5052482;28;19909;-70
2022/07/27 12:57:29;;;;;;;;;;;11.50;99.90;;;;;;5067105;28;19940;-71
2022/07/27 12:59:56;;;;;;;;;;;11.50;99.90;;;;;;5052238;28;19921;-70
2022/07/27 13:02:23;;;;;;;;;;;11.40;99.90;;;;;;5052341;28;19937;-70
2022/07/27 13:04:50;;;;;;;;;;;11.50;99.90;;;;;;5052311;28;20382;-70
2022/07/27 13:07:17;;;;;;;;;;;11.40;99.90;;;;;;5052311;28;19935;-70
2022/07/27 13:09:45;;;;;;;;;;;11.50;99.90;;;;;;5052010;28;19909;-70
2022/07/27 13:12:12;;;;;;;;;;;11.40;99.90;;;;;;5052004;28;19909;-69
2022/07/27 13:14:39;;;;;;;;;;;11.40;99.90;;;;;;5052350;28;19912;-69
2022/07/27 13:17:05;;;;;;;;;;;11.40;99.90;;;;;;5055260;28;19916;-70
2022/07/27 13:19:32;;;;;;;;;;;11.30;99.90;;;;;;5056271;28;20271;-69
2022/07/27 13:21:59;;;;;;;;;;;11.30;99.90;;;;;;5056394;28;19913;-70
2022/07/27 13:24:26;;;;;;;;;;;11.30;99.90;;;;;;5056109;28;19921;-69
2022/07/27 13:26:53;;;;;;;;;;;11.30;99.90;;;;;;5056137;28;19923;-69
2022/07/27 13:29:20;;;;;;;;;;;11.30;99.90;;;;;;5056341;28;20310;-70
2022/07/27 13:31:46;;;;;;;;;;;11.30;99.90;;;;;;5093540;28;20366;-70
2022/07/27 13:34:13;;;;;;;;;;;11.30;99.90;;;;;;5097004;28;19952;-70
2022/07/27 13:36:40;;;;;;;;;;;11.30;99.90;;;;;;5097002;28;19935;-71
2022/07/27 13:39:09;;;;;;;;;;;11.30;99.90;;;;;;5096926;28;19908;-70
2022/07/27 13:41:38;;;;;;;;;;;11.30;99.90;;;;;;5096845;28;20368;-71
2022/07/27 13:44:06;;;;;;;;;;;11.30;99.90;;;;;;5096612;28;19958;-71
2022/07/27 13:46:33;;;;;;;;;;;11.30;99.90;;;;;;5096919;28;19908;-71
2022/07/27 13:49:01;;;;;;;;;;;11.20;99.90;;;;;;5096859;28;19915;-71
2022/07/27 13:51:28;;;;;;;;;;;11.30;99.90;;;;;;5095503;28;20247;-70
2022/07/27 13:53:55;;;;;;;;;;;11.20;99.90;;;;;;5096717;28;19908;-71
2022/07/27 13:56:22;;;;;;;;;;;11.20;99.90;;;;;;5096347;28;20362;-71
2022/07/27 13:58:48;;;;;;;;;;;11.30;99.90;;;;;;5096469;28;19915;-70
2022/07/27 14:01:15;;;;;;;;;;;11.30;99.90;;;;;;5096553;28;19961;-71
2022/07/27 14:03:42;;;;;;;;;;;11.30;99.90;;;;;;5096523;28;20354;-71
2022/07/27 14:06:08;;;;;;;;;;;11.30;99.90;;;;;;5096321;28;19913;-70
2022/07/27 14:08:35;;;;;;;;;;;11.20;99.90;;;;;;5096577;28;19953;-71
2022/07/27 14:11:02;;;;;;;;;;;11.30;99.90;;;;;;5096211;28;19908;-70
2022/07/27 14:13:31;;;;;;;;;;;11.30;99.90;;;;;;5096327;28;19909;-71
2022/07/27 14:15:59;;;;;;;;;;;11.30;99.90;;;;;;5096344;28;19953;-71
2022/07/27 14:18:27;;;;;;;;;;;11.30;99.90;;;;;;5096245;28;19915;-70
2022/07/27 14:20:55;;;;;;;;;;;11.30;99.90;;;;;;5096249;28;20381;-71
2022/07/27 14:23:23;;;;;;;;;;;11.20;99.90;;;;;;5096116;28;19915;-70
2022/07/27 14:25:50;;;;;;;;;;;11.20;99.90;;;;;;5096019;28;19934;-71
2022/07/27 14:28:18;;;;;;;;;;;11.30;99.90;;;;;;5095463;28;19972;-71
2022/07/27 14:30:45;;;;;;;;;;;11.20;99.90;;;;;;5095968;28;19958;-70